sensor_id;sensor_type;location;lat;lon;timestamp;temperature;humidity
6379;DHT22;3222;48.858;10.128;2023-05-10T00:00:40;15.50;99.90
6379;DHT22;3222;48.858;10.128;2023-05-10T00:03:06;15.40;99.90
6379;DHT22;3222;48.858;10.128;2023-05-10T00:05:32;15.40;99.90
6379;DHT22;3222;48.858;10.128;2023-05-10T00:07:58;15.60;99.90
6379;DHT22;3222;48.858;10.128;2023-05-10T00:10:23;15.60;99.90
6379;DHT22;3222;48.858;10.128;2023-05-10T00:12:49;15.50;99.90
6379;DHT22;3222;48.858;10.128;2023-05-10T00:15:15;15.50;99.90
6379;DHT22;3222;48.858;10.128;2023-05-10T00:17:40;15.40;99.90
6379;DHT22;3222;48.858;10.128;2023-05-10T00:20:06;15.60;99.90
6379;DHT22;3222;48.858;10.128;2023-05-10T00:22:32;15.50;99.90
6379;DHT22;3222;48.858;10.128;2023-05-10T00:24:59;15.50;99.90
6379;DHT22;3222;48.858;10.128;2023-05-10T00:27:24;15.40;99.90
6379;DHT22;3222;48.858;10.128;2023-05-10T00:29:50;15.40;99.90
6379;DHT22;3222;48.858;10.128;2023-05-10T00:32:15;15.40;99.90
6379;DHT22;3222;48.858;10.128;2023-05-10T00:34:42;15.30;99.90
6379;DHT22;3222;48.858;10.128;2023-05-10T00:37:08;15.30;99.90
6379;DHT22;3222;48.858;10.128;2023-05-10T00:39:33;15.20;99.90
6379;DHT22;3222;48.858;10.128;2023-05-10T00:41:59;15.20;99.90
6379;DHT22;3222;48.858;10.128;2023-05-10T00:44:26;15.20;99.90
6379;DHT22;3222;48.858;10.128;2023-05-10T00:46:52;15.20;99.90
6379;DHT22;3222;48.858;10.128;2023-05-10T00:49:19;15.30;99.90
6379;DHT22;3222;48.858;10.128;2023-05-10T00:51:45;15.40;99.90
6379;DHT22;3222;48.858;10.128;2023-05-10T00:54:12;15.20;99.90
6379;DHT22;3222;48.858;10.128;2023-05-10T00:56:39;15.30;99.90
6379;DHT22;3222;48.858;10.128;2023-05-10T00:59:05;15.20;99.90
6379;DHT22;3222;48.858;10.128;2023-05-10T01:01:32;15.30;99.90
6379;DHT22;3222;48.858;10.128;2023-05-10T01:03:58;15.30;99.90
6379;DHT22;3222;48.858;10.128;2023-05-10T01:06:24;15.30;99.90
6379;DHT22;3222;48.858;10.128;2023-05-10T01:08:51;15.30;99.90
6379;DHT22;3222;48.858;10.128;2023-05-10T01:11:17;15.30;99.90
6379;DHT22;3222;48.858;10.128;2023-05-10T01:13:43;15.30;99.90
6379;DHT22;3222;48.858;10.128;2023-05-10T01:16:13;15.20;99.90
6379;DHT22;3222;48.858;10.128;2023-05-10T01:18:42;15.30;99.90
6379;DHT22;3222;48.858;10.128;2023-05-10T01:27:02;15.10;99.90
6379;DHT22;3222;48.858;10.128;2023-05-10T01:32:41;15.10;99.90
6379;DHT22;3222;48.858;10.128;2023-05-10T01:43:14;15.30;99.90
6379;DHT22;3222;48.858;10.128;2023-05-10T01:46:02;15.30;99.90
6379;DHT22;3222;48.858;10.128;2023-05-10T01:48:37;15.20;99.90
6379;DHT22;3222;48.858;10.128;2023-05-10T01:51:04;15.20;99.90
6379;DHT22;3222;48.858;10.128;2023-05-10T01:53:32;15.20;99.90
6379;DHT22;3222;48.858;10.128;2023-05-10T01:55:59;15.10;99.90
6379;DHT22;3222;48.858;10.128;2023-05-10T01:58:31;15.10;99.90
6379;DHT22;3222;48.858;10.128;2023-05-10T02:01:00;15.10;99.90
6379;DHT22;3222;48.858;10.128;2023-05-10T02:03:27;15.10;99.90
6379;DHT22;3222;48.858;10.128;2023-05-10T02:05:54;15.10;99.90
6379;DHT22;3222;48.858;10.128;2023-05-10T02:08:22;15.20;99.90
6379;DHT22;3222;48.858;10.128;2023-05-10T02:10:50;15.20;99.90
6379;DHT22;3222;48.858;10.128;2023-05-10T02:13:17;15.20;99.90
6379;DHT22;3222;48.858;10.128;2023-05-10T02:15:44;15.20;99.90
6379;DHT22;3222;48.858;10.128;2023-05-10T02:18:13;15.10;99.90
6379;DHT22;3222;48.858;10.128;2023-05-10T02:20:39;15.10;99.90
6379;DHT22;3222;48.858;10.128;2023-05-10T02:23:07;15.00;99.90
6379;DHT22;3222;48.858;10.128;2023-05-10T02:25:35;15.00;99.90
6379;DHT22;3222;48.858;10.128;2023-05-10T02:28:03;14.90;99.90
6379;DHT22;3222;48.858;10.128;2023-05-10T02:30:32;15.00;99.90
6379;DHT22;3222;48.858;10.128;2023-05-10T02:32:58;14.90;99.90
6379;DHT22;3222;48.858;10.128;2023-05-10T02:35:25;15.00;99.90
6379;DHT22;3222;48.858;10.128;2023-05-10T02:37:52;14.90;99.90
6379;DHT22;3222;48.858;10.128;2023-05-10T02:40:19;14.90;99.90
6379;DHT22;3222;48.858;10.128;2023-05-10T02:42:47;14.80;99.90
6379;DHT22;3222;48.858;10.128;2023-05-10T02:45:18;14.80;99.90
6379;DHT22;3222;48.858;10.128;2023-05-10T02:47:44;14.80;99.90
6379;DHT22;3222;48.858;10.128;2023-05-10T02:50:10;14.70;99.90
6379;DHT22;3222;48.858;10.128;2023-05-10T02:52:40;14.70;99.90
6379;DHT22;3222;48.858;10.128;2023-05-10T02:55:09;14.70;99.90
6379;DHT22;3222;48.858;10.128;2023-05-10T02:57:40;14.70;99.90
6379;DHT22;3222;48.858;10.128;2023-05-10T03:00:07;14.70;99.90
6379;DHT22;3222;48.858;10.128;2023-05-10T03:02:34;14.70;99.90
6379;DHT22;3222;48.858;10.128;2023-05-10T03:04:59;14.70;99.90
6379;DHT22;3222;48.858;10.128;2023-05-10T03:07:26;14.70;99.90
6379;DHT22;3222;48.858;10.128;2023-05-10T03:09:52;14.60;99.90
6379;DHT22;3222;48.858;10.128;2023-05-10T03:12:31;14.60;99.90
6379;DHT22;3222;48.858;10.128;2023-05-10T03:18:28;14.50;99.90
6379;DHT22;3222;48.858;10.128;2023-05-10T03:21:00;14.40;99.90
6379;DHT22;3222;48.858;10.128;2023-05-10T03:25:59;14.40;99.90
6379;DHT22;3222;48.858;10.128;2023-05-10T03:28:26;14.30;99.90
6379;DHT22;3222;48.858;10.128;2023-05-10T03:30:53;14.30;99.90
6379;DHT22;3222;48.858;10.128;2023-05-10T03:33:20;14.40;99.90
6379;DHT22;3222;48.858;10.128;2023-05-10T03:35:46;14.30;99.90
6379;DHT22;3222;48.858;10.128;2023-05-10T03:38:12;14.40;99.90
6379;DHT22;3222;48.858;10.128;2023-05-10T03:40:39;14.30;99.90
6379;DHT22;3222;48.858;10.128;2023-05-10T03:43:05;14.30;99.90
6379;DHT22;3222;48.858;10.128;2023-05-10T03:45:31;14.30;99.90
6379;DHT22;3222;48.858;10.128;2023-05-10T03:47:57;14.30;99.90
6379;DHT22;3222;48.858;10.128;2023-05-10T03:50:24;14.30;99.90
6379;DHT22;3222;48.858;10.128;2023-05-10T03:52:50;14.30;99.90
6379;DHT22;3222;48.858;10.128;2023-05-10T03:55:15;14.30;99.90
6379;DHT22;3222;48.858;10.128;2023-05-10T03:57:42;14.20;99.90
6379;DHT22;3222;48.858;10.128;2023-05-10T04:00:08;14.20;99.90
6379;DHT22;3222;48.858;10.128;2023-05-10T04:02:42;14.20;99.90
6379;DHT22;3222;48.858;10.128;2023-05-10T04:05:12;14.20;99.90
6379;DHT22;3222;48.858;10.128;2023-05-10T04:07:38;14.20;99.90
6379;DHT22;3222;48.858;10.128;2023-05-10T04:10:04;14.20;99.90
6379;DHT22;3222;48.858;10.128;2023-05-10T04:12:29;14.10;99.90
6379;DHT22;3222;48.858;10.128;2023-05-10T04:14:55;14.10;99.90
6379;DHT22;3222;48.858;10.128;2023-05-10T04:17:21;14.10;99.90
6379;DHT22;3222;48.858;10.128;2023-05-10T04:19:46;14.10;99.90
6379;DHT22;3222;48.858;10.128;2023-05-10T04:22:12;14.00;99.90
6379;DHT22;3222;48.858;10.128;2023-05-10T04:24:37;14.10;99.90
6379;DHT22;3222;48.858;10.128;2023-05-10T04:27:03;14.00;99.90
6379;DHT22;3222;48.858;10.128;2023-05-10T04:29:29;14.10;99.90
6379;DHT22;3222;48.858;10.128;2023-05-10T04:31:55;14.10;99.90
6379;DHT22;3222;48.858;10.128;2023-05-10T04:34:22;14.10;99.90
6379;DHT22;3222;48.858;10.128;2023-05-10T04:36:47;14.10;99.90
6379;DHT22;3222;48.858;10.128;2023-05-10T04:39:13;14.00;99.90
6379;DHT22;3222;48.858;10.128;2023-05-10T04:41:39;14.00;99.90
6379;DHT22;3222;48.858;10.128;2023-05-10T04:44:05;14.00;99.90
6379;DHT22;3222;48.858;10.128;2023-05-10T04:46:30;14.00;99.90
6379;DHT22;3222;48.858;10.128;2023-05-10T04:48:56;14.00;99.90
6379;DHT22;3222;48.858;10.128;2023-05-10T04:51:22;14.10;99.90
6379;DHT22;3222;48.858;10.128;2023-05-10T04:53:47;14.00;99.90
6379;DHT22;3222;48.858;10.128;2023-05-10T04:56:13;14.00;99.90
6379;DHT22;3222;48.858;10.128;2023-05-10T04:58:38;13.90;99.90
6379;DHT22;3222;48.858;10.128;2023-05-10T05:01:09;14.00;99.90
6379;DHT22;3222;48.858;10.128;2023-05-10T05:03:36;13.90;99.90
6379;DHT22;3222;48.858;10.128;2023-05-10T05:06:02;14.00;99.90
6379;DHT22;3222;48.858;10.128;2023-05-10T05:08:28;14.00;99.90
6379;DHT22;3222;48.858;10.128;2023-05-10T05:10:53;13.90;99.90
6379;DHT22;3222;48.858;10.128;2023-05-10T05:13:19;14.00;99.90
6379;DHT22;3222;48.858;10.128;2023-05-10T05:15:46;13.90;99.90
6379;DHT22;3222;48.858;10.128;2023-05-10T05:18:11;14.00;99.90
6379;DHT22;3222;48.858;10.128;2023-05-10T05:20:37;14.00;99.90
6379;DHT22;3222;48.858;10.128;2023-05-10T05:23:03;14.00;99.90
6379;DHT22;3222;48.858;10.128;2023-05-10T05:25:28;14.00;99.90
6379;DHT22;3222;48.858;10.128;2023-05-10T05:27:54;14.00;99.90
6379;DHT22;3222;48.858;10.128;2023-05-10T05:30:19;14.00;99.90
6379;DHT22;3222;48.858;10.128;2023-05-10T05:32:45;14.00;99.90
6379;DHT22;3222;48.858;10.128;2023-05-10T05:35:12;14.00;99.90
6379;DHT22;3222;48.858;10.128;2023-05-10T05:37:38;14.00;99.90
6379;DHT22;3222;48.858;10.128;2023-05-10T05:40:05;14.00;99.90
6379;DHT22;3222;48.858;10.128;2023-05-10T05:42:31;14.00;99.90
6379;DHT22;3222;48.858;10.128;2023-05-10T05:44:57;14.00;99.90
6379;DHT22;3222;48.858;10.128;2023-05-10T05:47:22;14.00;99.90
6379;DHT22;3222;48.858;10.128;2023-05-10T05:49:48;14.00;99.90
6379;DHT22;3222;48.858;10.128;2023-05-10T05:52:14;14.00;99.90
6379;DHT22;3222;48.858;10.128;2023-05-10T05:54:39;14.00;99.90
6379;DHT22;3222;48.858;10.128;2023-05-10T05:57:05;14.00;99.90
6379;DHT22;3222;48.858;10.128;2023-05-10T05:59:31;13.90;99.90
6379;DHT22;3222;48.858;10.128;2023-05-10T06:01:56;13.90;99.90
6379;DHT22;3222;48.858;10.128;2023-05-10T06:04:22;13.90;99.90
6379;DHT22;3222;48.858;10.128;2023-05-10T06:06:48;14.00;99.90
6379;DHT22;3222;48.858;10.128;2023-05-10T06:09:13;13.90;99.90
6379;DHT22;3222;48.858;10.128;2023-05-10T06:11:39;14.00;99.90
6379;DHT22;3222;48.858;10.128;2023-05-10T06:14:05;13.90;99.90
6379;DHT22;3222;48.858;10.128;2023-05-10T06:16:32;13.90;99.90
6379;DHT22;3222;48.858;10.128;2023-05-10T06:18:58;13.90;99.90
6379;DHT22;3222;48.858;10.128;2023-05-10T06:21:24;13.90;99.90
6379;DHT22;3222;48.858;10.128;2023-05-10T06:23:49;13.90;99.90
6379;DHT22;3222;48.858;10.128;2023-05-10T06:26:15;13.90;99.90
6379;DHT22;3222;48.858;10.128;2023-05-10T06:28:41;13.90;99.90
6379;DHT22;3222;48.858;10.128;2023-05-10T06:31:07;13.90;99.90
6379;DHT22;3222;48.858;10.128;2023-05-10T06:33:33;14.00;99.90
6379;DHT22;3222;48.858;10.128;2023-05-10T06:35:58;13.90;99.90
6379;DHT22;3222;48.858;10.128;2023-05-10T06:38:24;13.90;99.90
6379;DHT22;3222;48.858;10.128;2023-05-10T06:40:50;13.90;99.90
6379;DHT22;3222;48.858;10.128;2023-05-10T06:43:16;14.00;99.90
6379;DHT22;3222;48.858;10.128;2023-05-10T06:45:41;14.00;99.90
6379;DHT22;3222;48.858;10.128;2023-05-10T06:48:07;14.00;99.90
6379;DHT22;3222;48.858;10.128;2023-05-10T06:50:33;14.00;99.90
6379;DHT22;3222;48.858;10.128;2023-05-10T06:53:00;13.90;99.90
6379;DHT22;3222;48.858;10.128;2023-05-10T06:55:26;13.90;99.90
6379;DHT22;3222;48.858;10.128;2023-05-10T06:57:51;13.90;99.90
6379;DHT22;3222;48.858;10.128;2023-05-10T07:00:18;14.00;99.90
6379;DHT22;3222;48.858;10.128;2023-05-10T07:02:44;14.00;99.90
6379;DHT22;3222;48.858;10.128;2023-05-10T07:05:09;13.90;99.90
6379;DHT22;3222;48.858;10.128;2023-05-10T07:07:35;14.00;99.90
6379;DHT22;3222;48.858;10.128;2023-05-10T07:10:01;14.00;99.90
6379;DHT22;3222;48.858;10.128;2023-05-10T07:12:27;13.90;99.90
6379;DHT22;3222;48.858;10.128;2023-05-10T07:14:53;14.00;99.90
6379;DHT22;3222;48.858;10.128;2023-05-10T07:17:19;14.00;99.90
6379;DHT22;3222;48.858;10.128;2023-05-10T07:19:44;13.90;99.90
6379;DHT22;3222;48.858;10.128;2023-05-10T07:22:10;14.00;99.90
6379;DHT22;3222;48.858;10.128;2023-05-10T07:24:36;13.90;99.90
6379;DHT22;3222;48.858;10.128;2023-05-10T07:27:02;13.90;99.90
6379;DHT22;3222;48.858;10.128;2023-05-10T07:29:28;13.90;99.90
6379;DHT22;3222;48.858;10.128;2023-05-10T07:31:54;13.90;99.90
6379;DHT22;3222;48.858;10.128;2023-05-10T07:34:19;13.80;99.90
6379;DHT22;3222;48.858;10.128;2023-05-10T07:36:45;14.00;99.90
6379;DHT22;3222;48.858;10.128;2023-05-10T07:39:11;13.90;99.90
6379;DHT22;3222;48.858;10.128;2023-05-10T07:41:37;14.00;99.90
6379;DHT22;3222;48.858;10.128;2023-05-10T07:44:04;13.90;99.90
6379;DHT22;3222;48.858;10.128;2023-05-10T07:46:30;13.90;99.90
6379;DHT22;3222;48.858;10.128;2023-05-10T07:48:55;14.00;99.90
6379;DHT22;3222;48.858;10.128;2023-05-10T07:51:21;13.90;99.90
6379;DHT22;3222;48.858;10.128;2023-05-10T07:53:47;13.90;99.90
6379;DHT22;3222;48.858;10.128;2023-05-10T07:56:26;14.00;99.90
6379;DHT22;3222;48.858;10.128;2023-05-10T07:58:55;14.00;99.90
6379;DHT22;3222;48.858;10.128;2023-05-10T08:01:21;14.00;99.90
6379;DHT22;3222;48.858;10.128;2023-05-10T08:03:47;14.00;99.90
6379;DHT22;3222;48.858;10.128;2023-05-10T08:06:17;14.10;99.90
6379;DHT22;3222;48.858;10.128;2023-05-10T08:08:43;14.20;99.90
6379;DHT22;3222;48.858;10.128;2023-05-10T08:11:10;14.10;99.90
6379;DHT22;3222;48.858;10.128;2023-05-10T08:13:36;14.20;99.90
6379;DHT22;3222;48.858;10.128;2023-05-10T08:16:02;14.20;99.90
6379;DHT22;3222;48.858;10.128;2023-05-10T08:18:27;14.10;99.90
6379;DHT22;3222;48.858;10.128;2023-05-10T08:20:53;14.10;99.90
6379;DHT22;3222;48.858;10.128;2023-05-10T08:23:19;14.20;99.90
6379;DHT22;3222;48.858;10.128;2023-05-10T08:25:44;14.30;99.90
6379;DHT22;3222;48.858;10.128;2023-05-10T08:28:10;14.30;99.90
6379;DHT22;3222;48.858;10.128;2023-05-10T08:30:36;14.30;99.90
6379;DHT22;3222;48.858;10.128;2023-05-10T08:33:01;14.20;99.90
6379;DHT22;3222;48.858;10.128;2023-05-10T08:35:27;14.30;99.90
6379;DHT22;3222;48.858;10.128;2023-05-10T08:37:52;14.30;99.90
6379;DHT22;3222;48.858;10.128;2023-05-10T08:40:19;14.20;99.90
6379;DHT22;3222;48.858;10.128;2023-05-10T08:42:54;14.20;99.90
6379;DHT22;3222;48.858;10.128;2023-05-10T08:45:23;14.20;99.90
6379;DHT22;3222;48.858;10.128;2023-05-10T08:47:49;14.20;99.90
6379;DHT22;3222;48.858;10.128;2023-05-10T08:50:17;14.20;99.90
6379;DHT22;3222;48.858;10.128;2023-05-10T08:52:46;14.20;99.90
6379;DHT22;3222;48.858;10.128;2023-05-10T08:55:14;14.20;99.90
6379;DHT22;3222;48.858;10.128;2023-05-10T08:57:40;14.10;99.90
6379;DHT22;3222;48.858;10.128;2023-05-10T09:00:07;14.20;99.90
6379;DHT22;3222;48.858;10.128;2023-05-10T09:02:34;14.20;99.90
6379;DHT22;3222;48.858;10.128;2023-05-10T09:04:59;14.20;99.90
6379;DHT22;3222;48.858;10.128;2023-05-10T09:07:25;14.30;99.90
6379;DHT22;3222;48.858;10.128;2023-05-10T09:09:51;14.30;99.90
6379;DHT22;3222;48.858;10.128;2023-05-10T09:12:17;14.10;99.90
6379;DHT22;3222;48.858;10.128;2023-05-10T09:14:44;14.10;99.90
6379;DHT22;3222;48.858;10.128;2023-05-10T09:17:10;14.10;99.90
6379;DHT22;3222;48.858;10.128;2023-05-10T09:19:36;14.30;99.90
6379;DHT22;3222;48.858;10.128;2023-05-10T09:22:01;14.30;99.90
6379;DHT22;3222;48.858;10.128;2023-05-10T09:24:29;14.30;99.90
6379;DHT22;3222;48.858;10.128;2023-05-10T09:26:57;14.20;99.90
6379;DHT22;3222;48.858;10.128;2023-05-10T09:29:23;14.20;99.90
6379;DHT22;3222;48.858;10.128;2023-05-10T09:31:50;14.20;99.90
6379;DHT22;3222;48.858;10.128;2023-05-10T09:34:43;14.10;99.90
6379;DHT22;3222;48.858;10.128;2023-05-10T09:37:10;14.00;99.90
6379;DHT22;3222;48.858;10.128;2023-05-10T09:39:37;13.90;99.90
6379;DHT22;3222;48.858;10.128;2023-05-10T09:42:07;14.10;99.90
6379;DHT22;3222;48.858;10.128;2023-05-10T09:44:35;14.10;99.90
6379;DHT22;3222;48.858;10.128;2023-05-10T09:47:01;14.10;99.90
6379;DHT22;3222;48.858;10.128;2023-05-10T09:49:27;14.20;99.90
6379;DHT22;3222;48.858;10.128;2023-05-10T09:52:06;14.10;99.90
6379;DHT22;3222;48.858;10.128;2023-05-10T09:54:33;14.10;99.90
6379;DHT22;3222;48.858;10.128;2023-05-10T09:56:59;14.20;99.90
6379;DHT22;3222;48.858;10.128;2023-05-10T09:59:26;14.20;99.90
6379;DHT22;3222;48.858;10.128;2023-05-10T10:02:01;14.20;99.90
6379;DHT22;3222;48.858;10.128;2023-05-10T10:04:28;14.20;99.90
6379;DHT22;3222;48.858;10.128;2023-05-10T10:07:04;14.20;99.90
6379;DHT22;3222;48.858;10.128;2023-05-10T10:09:30;14.30;99.90
6379;DHT22;3222;48.858;10.128;2023-05-10T10:11:56;14.30;99.90
6379;DHT22;3222;48.858;10.128;2023-05-10T10:14:23;14.40;99.90
6379;DHT22;3222;48.858;10.128;2023-05-10T10:16:52;14.40;99.90
6379;DHT22;3222;48.858;10.128;2023-05-10T10:19:21;14.40;99.90
6379;DHT22;3222;48.858;10.128;2023-05-10T10:21:50;14.40;99.90
6379;DHT22;3222;48.858;10.128;2023-05-10T10:24:16;14.30;99.90
6379;DHT22;3222;48.858;10.128;2023-05-10T10:26:42;14.20;99.90
6379;DHT22;3222;48.858;10.128;2023-05-10T10:34:38;14.10;99.90
6379;DHT22;3222;48.858;10.128;2023-05-10T10:37:05;14.20;99.90
6379;DHT22;3222;48.858;10.128;2023-05-10T10:39:32;14.30;99.90
6379;DHT22;3222;48.858;10.128;2023-05-10T10:41:59;14.30;99.90
6379;DHT22;3222;48.858;10.128;2023-05-10T10:49:51;14.50;99.90
6379;DHT22;3222;48.858;10.128;2023-05-10T10:52:30;14.60;99.90
6379;DHT22;3222;48.858;10.128;2023-05-10T10:55:00;14.50;99.90
6379;DHT22;3222;48.858;10.128;2023-05-10T10:57:27;14.50;99.90
6379;DHT22;3222;48.858;10.128;2023-05-10T11:00:21;14.50;99.90
6379;DHT22;3222;48.858;10.128;2023-05-10T11:02:52;14.40;99.90
6379;DHT22;3222;48.858;10.128;2023-05-10T11:05:35;14.50;99.90
6379;DHT22;3222;48.858;10.128;2023-05-10T11:08:28;14.50;99.90
6379;DHT22;3222;48.858;10.128;2023-05-10T11:11:05;14.50;99.90
6379;DHT22;3222;48.858;10.128;2023-05-10T11:13:45;14.60;99.90
6379;DHT22;3222;48.858;10.128;2023-05-10T11:21:23;14.60;99.90
6379;DHT22;3222;48.858;10.128;2023-05-10T11:23:52;14.70;99.90
6379;DHT22;3222;48.858;10.128;2023-05-10T11:26:21;14.70;99.90
6379;DHT22;3222;48.858;10.128;2023-05-10T11:28:51;14.70;99.90
6379;DHT22;3222;48.858;10.128;2023-05-10T11:31:18;14.70;99.90
6379;DHT22;3222;48.858;10.128;2023-05-10T11:33:53;14.60;99.90
6379;DHT22;3222;48.858;10.128;2023-05-10T11:36:26;14.70;99.90
6379;DHT22;3222;48.858;10.128;2023-05-10T11:38:53;14.60;99.90
6379;DHT22;3222;48.858;10.128;2023-05-10T11:41:20;14.60;99.90
6379;DHT22;3222;48.858;10.128;2023-05-10T11:43:49;14.60;99.90
6379;DHT22;3222;48.858;10.128;2023-05-10T11:46:17;14.60;99.90
6379;DHT22;3222;48.858;10.128;2023-05-10T11:48:43;14.60;99.90
6379;DHT22;3222;48.858;10.128;2023-05-10T11:51:10;14.60;99.90
6379;DHT22;3222;48.858;10.128;2023-05-10T11:53:37;14.70;99.90
6379;DHT22;3222;48.858;10.128;2023-05-10T11:56:10;14.70;99.90
6379;DHT22;3222;48.858;10.128;2023-05-10T11:58:38;14.60;99.90
6379;DHT22;3222;48.858;10.128;2023-05-10T12:01:05;14.60;99.90
6379;DHT22;3222;48.858;10.128;2023-05-10T12:03:32;14.60;99.90
6379;DHT22;3222;48.858;10.128;2023-05-10T12:05:58;14.70;99.90
6379;DHT22;3222;48.858;10.128;2023-05-10T12:08:26;14.60;99.90
6379;DHT22;3222;48.858;10.128;2023-05-10T12:10:53;14.70;99.90
6379;DHT22;3222;48.858;10.128;2023-05-10T12:13:20;14.60;99.90
6379;DHT22;3222;48.858;10.128;2023-05-10T12:15:46;14.70;99.90
6379;DHT22;3222;48.858;10.128;2023-05-10T12:18:13;14.80;99.90
6379;DHT22;3222;48.858;10.128;2023-05-10T12:20:40;14.80;99.90
6379;DHT22;3222;48.858;10.128;2023-05-10T12:23:08;14.80;99.90
6379;DHT22;3222;48.858;10.128;2023-05-10T12:25:35;14.80;99.90
6379;DHT22;3222;48.858;10.128;2023-05-10T12:28:07;14.90;99.90
6379;DHT22;3222;48.858;10.128;2023-05-10T12:30:34;14.70;99.90
6379;DHT22;3222;48.858;10.128;2023-05-10T12:33:08;14.70;99.90
6379;DHT22;3222;48.858;10.128;2023-05-10T12:35:47;14.70;99.90
6379;DHT22;3222;48.858;10.128;2023-05-10T12:38:33;14.80;99.90
6379;DHT22;3222;48.858;10.128;2023-05-10T12:41:00;14.90;99.90
6379;DHT22;3222;48.858;10.128;2023-05-10T12:43:27;14.90;99.90
6379;DHT22;3222;48.858;10.128;2023-05-10T12:45:53;14.80;99.90
6379;DHT22;3222;48.858;10.128;2023-05-10T12:48:19;14.90;99.90
6379;DHT22;3222;48.858;10.128;2023-05-10T12:50:45;14.80;99.90
6379;DHT22;3222;48.858;10.128;2023-05-10T12:53:11;14.70;99.90
6379;DHT22;3222;48.858;10.128;2023-05-10T12:55:36;14.60;99.90
6379;DHT22;3222;48.858;10.128;2023-05-10T12:58:02;14.50;99.90
6379;DHT22;3222;48.858;10.128;2023-05-10T13:00:28;14.50;99.90
6379;DHT22;3222;48.858;10.128;2023-05-10T13:02:53;14.30;99.90
6379;DHT22;3222;48.858;10.128;2023-05-10T13:05:19;14.30;99.90
6379;DHT22;3222;48.858;10.128;2023-05-10T13:07:45;14.30;99.90
6379;DHT22;3222;48.858;10.128;2023-05-10T13:10:10;14.30;99.90
6379;DHT22;3222;48.858;10.128;2023-05-10T13:12:36;14.30;99.90
6379;DHT22;3222;48.858;10.128;2023-05-10T13:15:03;14.30;99.90
6379;DHT22;3222;48.858;10.128;2023-05-10T13:17:29;14.20;99.90
6379;DHT22;3222;48.858;10.128;2023-05-10T13:19:54;14.20;99.90
6379;DHT22;3222;48.858;10.128;2023-05-10T13:22:20;14.10;99.90
6379;DHT22;3222;48.858;10.128;2023-05-10T13:24:46;14.20;99.90
6379;DHT22;3222;48.858;10.128;2023-05-10T13:27:12;14.30;99.90
6379;DHT22;3222;48.858;10.128;2023-05-10T13:29:37;14.50;99.90
6379;DHT22;3222;48.858;10.128;2023-05-10T13:32:03;14.50;99.90
6379;DHT22;3222;48.858;10.128;2023-05-10T13:34:29;14.40;99.90
6379;DHT22;3222;48.858;10.128;2023-05-10T13:36:54;14.40;99.90
6379;DHT22;3222;48.858;10.128;2023-05-10T13:39:21;14.30;99.90
6379;DHT22;3222;48.858;10.128;2023-05-10T13:41:47;14.40;99.90
6379;DHT22;3222;48.858;10.128;2023-05-10T13:44:14;14.30;99.90
6379;DHT22;3222;48.858;10.128;2023-05-10T13:46:41;14.30;99.90
6379;DHT22;3222;48.858;10.128;2023-05-10T13:49:08;14.30;99.90
6379;DHT22;3222;48.858;10.128;2023-05-10T13:51:34;14.30;99.90
6379;DHT22;3222;48.858;10.128;2023-05-10T13:54:01;14.30;99.90
6379;DHT22;3222;48.858;10.128;2023-05-10T13:56:27;14.20;99.90
6379;DHT22;3222;48.858;10.128;2023-05-10T13:58:53;14.30;99.90
6379;DHT22;3222;48.858;10.128;2023-05-10T14:01:18;14.30;99.90
6379;DHT22;3222;48.858;10.128;2023-05-10T14:03:44;14.30;99.90
6379;DHT22;3222;48.858;10.128;2023-05-10T14:06:10;14.20;99.90
6379;DHT22;3222;48.858;10.128;2023-05-10T14:08:36;14.20;99.90
6379;DHT22;3222;48.858;10.128;2023-05-10T14:11:02;14.30;99.90
6379;DHT22;3222;48.858;10.128;2023-05-10T14:13:28;14.30;99.90
6379;DHT22;3222;48.858;10.128;2023-05-10T14:15:54;14.30;99.90
6379;DHT22;3222;48.858;10.128;2023-05-10T14:18:20;14.20;99.90
6379;DHT22;3222;48.858;10.128;2023-05-10T14:20:45;14.10;99.90
6379;DHT22;3222;48.858;10.128;2023-05-10T14:23:11;14.20;99.90
6379;DHT22;3222;48.858;10.128;2023-05-10T14:25:41;14.10;99.90
6379;DHT22;3222;48.858;10.128;2023-05-10T14:28:06;14.20;99.90
6379;DHT22;3222;48.858;10.128;2023-05-10T14:30:32;14.20;99.90
6379;DHT22;3222;48.858;10.128;2023-05-10T14:33:00;14.20;99.90
6379;DHT22;3222;48.858;10.128;2023-05-10T14:35:27;14.20;99.90
6379;DHT22;3222;48.858;10.128;2023-05-10T14:37:53;14.10;99.90
6379;DHT22;3222;48.858;10.128;2023-05-10T14:40:19;14.30;99.90
6379;DHT22;3222;48.858;10.128;2023-05-10T14:42:44;14.20;99.90
6379;DHT22;3222;48.858;10.128;2023-05-10T14:45:10;14.20;99.90
6379;DHT22;3222;48.858;10.128;2023-05-10T14:47:36;14.30;99.90
6379;DHT22;3222;48.858;10.128;2023-05-10T14:50:02;14.10;99.90
6379;DHT22;3222;48.858;10.128;2023-05-10T14:52:28;14.20;99.90
6379;DHT22;3222;48.858;10.128;2023-05-10T14:54:54;14.10;99.90
6379;DHT22;3222;48.858;10.128;2023-05-10T14:57:19;14.10;99.90
6379;DHT22;3222;48.858;10.128;2023-05-10T14:59:45;14.20;99.90
6379;DHT22;3222;48.858;10.128;2023-05-10T15:02:11;14.20;99.90
6379;DHT22;3222;48.858;10.128;2023-05-10T15:04:36;14.20;99.90
6379;DHT22;3222;48.858;10.128;2023-05-10T15:07:02;14.20;99.90
6379;DHT22;3222;48.858;10.128;2023-05-10T15:09:28;14.10;99.90
6379;DHT22;3222;48.858;10.128;2023-05-10T15:11:54;14.10;99.90
6379;DHT22;3222;48.858;10.128;2023-05-10T15:14:20;14.10;99.90
6379;DHT22;3222;48.858;10.128;2023-05-10T15:16:46;14.10;99.90
6379;DHT22;3222;48.858;10.128;2023-05-10T15:19:12;14.10;99.90
6379;DHT22;3222;48.858;10.128;2023-05-10T15:21:37;14.10;99.90
6379;DHT22;3222;48.858;10.128;2023-05-10T15:24:05;14.10;99.90
6379;DHT22;3222;48.858;10.128;2023-05-10T15:26:31;14.10;99.90
6379;DHT22;3222;48.858;10.128;2023-05-10T15:28:57;14.10;99.90
6379;DHT22;3222;48.858;10.128;2023-05-10T15:31:22;14.10;99.90
6379;DHT22;3222;48.858;10.128;2023-05-10T15:33:48;14.00;99.90
6379;DHT22;3222;48.858;10.128;2023-05-10T15:36:13;13.90;99.90
6379;DHT22;3222;48.858;10.128;2023-05-10T15:38:39;13.90;99.90
6379;DHT22;3222;48.858;10.128;2023-05-10T15:41:05;13.80;99.90
6379;DHT22;3222;48.858;10.128;2023-05-10T15:43:30;14.00;99.90
6379;DHT22;3222;48.858;10.128;2023-05-10T15:45:56;14.10;99.90
6379;DHT22;3222;48.858;10.128;2023-05-10T15:48:22;14.00;99.90
6379;DHT22;3222;48.858;10.128;2023-05-10T15:50:48;14.00;99.90
6379;DHT22;3222;48.858;10.128;2023-05-10T15:53:13;14.00;99.90
6379;DHT22;3222;48.858;10.128;2023-05-10T15:55:39;13.90;99.90
6379;DHT22;3222;48.858;10.128;2023-05-10T15:58:05;13.90;99.90
6379;DHT22;3222;48.858;10.128;2023-05-10T16:00:30;13.80;99.90
6379;DHT22;3222;48.858;10.128;2023-05-10T16:02:56;13.80;99.90
6379;DHT22;3222;48.858;10.128;2023-05-10T16:05:21;13.80;99.90
6379;DHT22;3222;48.858;10.128;2023-05-10T16:07:47;13.80;99.90
6379;DHT22;3222;48.858;10.128;2023-05-10T16:10:13;13.90;99.90
6379;DHT22;3222;48.858;10.128;2023-05-10T16:12:39;14.10;99.90
6379;DHT22;3222;48.858;10.128;2023-05-10T16:15:05;14.00;99.90
6379;DHT22;3222;48.858;10.128;2023-05-10T16:17:31;14.10;99.90
6379;DHT22;3222;48.858;10.128;2023-05-10T16:19:57;14.00;99.90
6379;DHT22;3222;48.858;10.128;2023-05-10T16:22:24;14.00;99.90